Time;durP1;ratioP1;P1;durP2;ratioP2;P2;SDS_P1;SDS_P2;PMS_P1;PMS_P2;Temp;Humidity;BMP_temperature;BMP_pressure;BME280_temperature;BME280_humidity;BME280_pressure;Samples;Min_cycle;Max_cycle;Signal;HPM_P1;HPM_P2
2021/05/23 00:00:15;;;;;;;9.05;8.15;;;;;;;;;;5094759;28;20253;-59
2021/05/23 00:02:42;;;;;;;12.52;9.70;;;;;;;;;;5094072;28;20200;-59
2021/05/23 00:05:10;;;;;;;10.70;9.73;;;;;;;;;;5093797;28;20251;-59
2021/05/23 00:07:39;;;;;;;11.48;10.27;;;;;;;;;;5093999;28;20619;-59
2021/05/23 00:10:07;;;;;;;12.00;10.77;;;;;;;;;;5093915;28;20668;-60
2021/05/23 00:12:33;;;;;;;12.23;11.02;;;;;;;;;;5094612;28;20648;-59
2021/05/23 00:15:00;;;;;;;11.75;10.55;;;;;;;;;;5093805;28;20223;-59
2021/05/23 00:17:27;;;;;;;12.05;10.95;;;;;;;;;;5093488;28;20683;-59
2021/05/23 00:19:54;;;;;;;12.40;11.13;;;;;;;;;;5093692;28;20664;-60
2021/05/23 00:22:20;;;;;;;14.02;12.38;;;;;;;;;;5093578;28;20204;-60
2021/05/23 00:24:47;;;;;;;13.23;11.90;;;;;;;;;;5097825;28;20223;-60
2021/05/23 00:27:15;;;;;;;13.40;12.10;;;;;;;;;;5098378;28;20200;-60
2021/05/23 00:29:41;;;;;;;11.90;10.77;;;;;;;;;;5097670;28;20219;-60
2021/05/23 00:32:08;;;;;;;12.60;11.40;;;;;;;;;;5097308;28;20211;-60
2021/05/23 00:34:35;;;;;;;11.75;10.55;;;;;;;;;;5097226;28;20220;-60
2021/05/23 00:37:02;;;;;;;11.23;10.13;;;;;;;;;;5097218;28;20201;-60
2021/05/23 00:39:28;;;;;;;11.55;10.45;;;;;;;;;;5097483;28;20200;-60
2021/05/23 00:41:55;;;;;;;10.63;9.63;;;;;;;;;;5097186;28;20199;-60
2021/05/23 00:44:23;;;;;;;11.05;9.32;;;;;;;;;;5097877;28;20228;-60
2021/05/23 00:46:49;;;;;;;9.05;8.25;;;;;;;;;;5097075;28;20197;-60
2021/05/23 00:49:16;;;;;;;9.63;8.80;;;;;;;;;;5097202;28;20274;-59
2021/05/23 00:51:43;;;;;;;9.23;8.32;;;;;;;;;;5097272;28;20204;-59
2021/05/23 00:54:10;;;;;;;7.78;7.07;;;;;;;;;;5096615;28;20586;-60
2021/05/23 00:56:36;;;;;;;8.27;7.50;;;;;;;;;;5097169;28;20204;-60
2021/05/23 00:59:03;;;;;;;8.23;7.47;;;;;;;;;;5097091;28;20200;-60
2021/05/23 01:02:03;;;;;;;8.23;7.43;;;;;;;;;;5097105;28;20211;-59
2021/05/23 01:04:31;;;;;;;8.07;7.38;;;;;;;;;;5096559;28;20228;-59
2021/05/23 01:06:58;;;;;;;9.23;8.32;;;;;;;;;;5096914;28;20257;-59
2021/05/23 01:09:25;;;;;;;7.68;7.03;;;;;;;;;;5096797;28;20220;-59
2021/05/23 01:12:06;;;;;;;8.20;7.50;;;;;;;;;;5096704;28;20215;-59
2021/05/23 01:14:48;;;;;;;7.65;6.95;;;;;;;;;;5096754;28;20222;-60
2021/05/23 01:17:16;;;;;;;9.27;7.35;;;;;;;;;;5096688;28;20200;-60
2021/05/23 01:19:52;;;;;;;8.00;7.30;;;;;;;;;;5096344;28;20668;-59
2021/05/23 01:22:26;;;;;;;8.45;7.63;;;;;;;;;;5096672;28;20445;-59
2021/05/23 01:25:01;;;;;;;7.53;6.93;;;;;;;;;;5096471;28;20215;-59
2021/05/23 01:27:34;;;;;;;7.80;7.10;;;;;;;;;;5096440;28;20184;-59
2021/05/23 01:30:02;;;;;;;8.60;7.90;;;;;;;;;;5096438;28;20491;-59
2021/05/23 01:32:29;;;;;;;7.22;6.63;;;;;;;;;;5096191;28;20253;-59
2021/05/23 01:34:59;;;;;;;8.85;8.05;;;;;;;;;;5120102;22;20695;-56
2021/05/23 01:37:26;;;;;;;9.07;6.95;;;;;;;;;;5095933;28;20263;-56
2021/05/23 01:39:53;;;;;;;8.33;7.57;;;;;;;;;;5095913;28;20211;-57
2021/05/23 01:42:21;;;;;;;7.55;6.85;;;;;;;;;;5095906;28;20439;-56
2021/05/23 01:44:47;;;;;;;7.40;6.80;;;;;;;;;;5095481;28;20224;-57
2021/05/23 01:47:14;;;;;;;8.60;7.47;;;;;;;;;;5095792;28;20573;-56
2021/05/23 01:49:41;;;;;;;8.35;7.57;;;;;;;;;;5095607;28;20273;-57
2021/05/23 01:52:08;;;;;;;8.15;7.30;;;;;;;;;;5095696;28;20196;-56
2021/05/23 01:54:35;;;;;;;7.93;7.22;;;;;;;;;;5095525;28;20220;-56
2021/05/23 01:57:01;;;;;;;7.35;6.75;;;;;;;;;;5095247;28;20608;-57
2021/05/23 01:59:29;;;;;;;8.45;7.75;;;;;;;;;;5095340;28;20200;-53
2021/05/23 02:01:56;;;;;;;8.50;7.78;;;;;;;;;;5095520;28;20203;-56
2021/05/23 02:04:23;;;;;;;8.63;7.93;;;;;;;;;;5095297;28;20387;-57
2021/05/23 02:06:51;;;;;;;10.60;8.50;;;;;;;;;;5096128;28;20196;-56
2021/05/23 02:09:18;;;;;;;8.98;8.15;;;;;;;;;;5096905;28;20238;-57
2021/05/23 02:11:45;;;;;;;9.10;8.20;;;;;;;;;;5096353;28;20261;-56
2021/05/23 02:14:11;;;;;;;10.30;9.20;;;;;;;;;;5095665;28;20220;-56
2021/05/23 02:16:39;;;;;;;11.27;10.25;;;;;;;;;;5095507;28;20522;-56
2021/05/23 02:19:08;;;;;;;9.63;8.63;;;;;;;;;;5095165;28;20222;-56
2021/05/23 02:21:34;;;;;;;10.35;9.25;;;;;;;;;;5096667;28;20454;-57
2021/05/23 02:24:01;;;;;;;10.40;9.30;;;;;;;;;;5095144;28;20655;-56
2021/05/23 02:26:28;;;;;;;9.30;8.15;;;;;;;;;;5094898;28;20687;-56
2021/05/23 02:28:55;;;;;;;8.85;8.05;;;;;;;;;;5094777;28;20703;-56
2021/05/23 02:31:21;;;;;;;9.50;8.50;;;;;;;;;;5094706;28;20253;-56
2021/05/23 02:33:49;;;;;;;12.38;8.20;;;;;;;;;;5094805;28;20583;-56
2021/05/23 02:36:16;;;;;;;9.35;8.45;;;;;;;;;;5095106;28;20196;-57
2021/05/23 02:38:43;;;;;;;8.55;7.30;;;;;;;;;;5095141;28;20222;-57
2021/05/23 02:41:09;;;;;;;10.18;7.78;;;;;;;;;;5095109;28;20196;-55
2021/05/23 02:43:36;;;;;;;9.65;8.65;;;;;;;;;;5094751;28;20246;-56
2021/05/23 02:46:04;;;;;;;11.00;8.43;;;;;;;;;;5094568;28;20205;-56
2021/05/23 02:48:31;;;;;;;10.85;9.60;;;;;;;;;;5094195;28;20220;-56
2021/05/23 02:51:01;;;;;;;10.15;9.15;;;;;;;;;;5094566;28;20200;-56
2021/05/23 02:53:28;;;;;;;10.65;9.63;;;;;;;;;;5094670;28;20181;-57
2021/05/23 02:55:55;;;;;;;11.95;9.57;;;;;;;;;;5094587;28;20223;-56
2021/05/23 02:58:22;;;;;;;12.23;8.95;;;;;;;;;;5094561;28;20196;-56
2021/05/23 03:00:49;;;;;;;11.68;10.57;;;;;;;;;;5094447;28;20261;-57
2021/05/23 03:03:16;;;;;;;13.15;11.25;;;;;;;;;;5094506;28;20204;-57
2021/05/23 03:05:43;;;;;;;11.75;10.15;;;;;;;;;;5094451;28;20249;-56
2021/05/23 03:08:11;;;;;;;14.95;11.00;;;;;;;;;;5094042;28;20230;-57
2021/05/23 03:10:38;;;;;;;14.48;11.00;;;;;;;;;;5094343;28;20547;-57
2021/05/23 03:13:06;;;;;;;13.80;10.55;;;;;;;;;;5093955;28;20200;-57
2021/05/23 03:15:33;;;;;;;14.13;11.35;;;;;;;;;;5094147;28;20232;-56
2021/05/23 03:18:02;;;;;;;13.88;11.65;;;;;;;;;;5093904;28;20199;-56
2021/05/23 03:20:29;;;;;;;14.55;10.88;;;;;;;;;;5094207;28;20204;-56
2021/05/23 03:22:57;;;;;;;15.70;11.48;;;;;;;;;;5093915;28;20683;-56
2021/05/23 03:25:25;;;;;;;14.40;11.40;;;;;;;;;;5093669;28;20220;-57
2021/05/23 03:27:52;;;;;;;12.57;10.85;;;;;;;;;;5094259;28;20200;-56
2021/05/23 03:30:19;;;;;;;13.23;11.23;;;;;;;;;;5093716;28;20220;-56
2021/05/23 03:32:46;;;;;;;13.23;10.57;;;;;;;;;;5093739;28;20594;-56
2021/05/23 03:35:14;;;;;;;13.43;11.43;;;;;;;;;;5093454;28;20722;-55
2021/05/23 03:37:40;;;;;;;17.30;12.63;;;;;;;;;;5093884;28;20208;-55
2021/05/23 03:40:09;;;;;;;16.58;12.52;;;;;;;;;;5093382;28;20204;-56
2021/05/23 03:42:36;;;;;;;15.70;12.23;;;;;;;;;;5093732;28;20200;-56
2021/05/23 03:45:03;;;;;;;14.02;11.95;;;;;;;;;;5093649;28;20220;-55
2021/05/23 03:47:30;;;;;;;12.85;10.73;;;;;;;;;;5093349;28;20203;-55
2021/05/23 03:49:57;;;;;;;11.68;10.13;;;;;;;;;;5093798;28;20216;-56
2021/05/23 03:52:24;;;;;;;12.63;9.70;;;;;;;;;;5093772;28;20200;-56
2021/05/23 03:54:50;;;;;;;10.77;8.13;;;;;;;;;;5094583;28;20273;-56
2021/05/23 03:57:17;;;;;;;10.77;8.27;;;;;;;;;;5093998;28;20627;-55
2021/05/23 03:59:45;;;;;;;10.05;8.80;;;;;;;;;;5093481;28;20570;-56
2021/05/23 04:02:11;;;;;;;14.75;9.27;;;;;;;;;;5093714;28;20208;-56
2021/05/23 04:08:07;;;;;;;12.93;8.93;;;;;;;;;;5113052;27;20544;-58
2021/05/23 04:10:37;;;;;;;12.85;8.98;;;;;;;;;;5112588;28;20713;-58
2021/05/23 04:13:06;;;;;;;11.70;9.00;;;;;;;;;;5111696;28;20812;-58
2021/05/23 04:15:33;;;;;;;9.13;8.20;;;;;;;;;;5111801;28;20307;-58
2021/05/23 04:17:59;;;;;;;11.80;8.50;;;;;;;;;;5111469;28;20200;-57
2021/05/23 04:20:27;;;;;;;11.45;8.00;;;;;;;;;;5110979;28;20721;-57
2021/05/23 04:22:54;;;;;;;9.38;8.00;;;;;;;;;;5110800;28;20203;-58
2021/05/23 04:25:21;;;;;;;8.55;7.72;;;;;;;;;;5110855;28;20223;-58
2021/05/23 04:27:49;;;;;;;12.35;8.00;;;;;;;;;;5110524;28;20223;-57
2021/05/23 04:30:17;;;;;;;10.20;6.93;;;;;;;;;;5110545;28;20199;-58
2021/05/23 04:32:44;;;;;;;8.20;7.30;;;;;;;;;;5111328;28;20260;-58
2021/05/23 04:35:12;;;;;;;12.65;7.07;;;;;;;;;;5110339;28;20273;-57
2021/05/23 04:37:38;;;;;;;12.10;7.25;;;;;;;;;;5110342;28;20200;-58
2021/05/23 04:40:06;;;;;;;6.93;6.22;;;;;;;;;;5110736;28;20207;-57
2021/05/23 04:42:34;;;;;;;11.73;6.85;;;;;;;;;;5110578;28;20229;-57
2021/05/23 04:45:00;;;;;;;11.13;6.93;;;;;;;;;;5110419;28;20216;-57
2021/05/23 04:47:28;;;;;;;9.23;6.90;;;;;;;;;;5110454;28;20215;-57
2021/05/23 04:49:55;;;;;;;11.73;6.20;;;;;;;;;;5110506;28;20445;-57
2021/05/23 04:52:22;;;;;;;7.78;6.80;;;;;;;;;;5110608;28;20204;-58
2021/05/23 04:54:49;;;;;;;12.37;5.67;;;;;;;;;;5110416;28;20215;-58
2021/05/23 04:57:16;;;;;;;7.30;5.57;;;;;;;;;;5110143;28;20503;-58
2021/05/23 04:59:43;;;;;;;5.57;4.93;;;;;;;;;;5110343;28;20514;-58
2021/05/23 05:02:10;;;;;;;7.53;5.00;;;;;;;;;;5109784;28;20452;-58
2021/05/23 05:04:37;;;;;;;5.63;4.90;;;;;;;;;;5109744;28;20949;-58
2021/05/23 05:07:04;;;;;;;7.53;5.13;;;;;;;;;;5109595;28;20481;-56
2021/05/23 05:09:30;;;;;;;7.10;5.50;;;;;;;;;;5110027;28;20441;-58
2021/05/23 05:11:57;;;;;;;8.57;5.87;;;;;;;;;;5110096;28;20437;-57
2021/05/23 05:14:24;;;;;;;6.63;4.67;;;;;;;;;;5109957;28;20474;-57
2021/05/23 05:16:51;;;;;;;9.40;5.73;;;;;;;;;;5110054;28;20511;-58
2021/05/23 05:19:18;;;;;;;7.17;5.50;;;;;;;;;;5097218;28;20447;-58
2021/05/23 05:21:45;;;;;;;11.33;6.63;;;;;;;;;;5096468;28;20442;-57
2021/05/23 05:24:12;;;;;;;10.50;5.23;;;;;;;;;;5096177;28;20463;-58
2021/05/23 05:26:39;;;;;;;6.77;4.50;;;;;;;;;;5096160;28;20473;-57
2021/05/23 05:29:06;;;;;;;7.37;4.57;;;;;;;;;;5097901;28;20446;-57
2021/05/23 05:31:33;;;;;;;5.30;4.80;;;;;;;;;;5096286;28;20453;-58
2021/05/23 05:34:01;;;;;;;5.10;4.60;;;;;;;;;;5095747;28;20470;-57
2021/05/23 05:36:28;;;;;;;11.00;5.80;;;;;;;;;;5096116;28;20442;-58
2021/05/23 05:38:54;;;;;;;6.90;5.27;;;;;;;;;;5096161;28;20793;-58
2021/05/23 05:41:21;;;;;;;8.17;5.17;;;;;;;;;;5095859;28;20446;-57
2021/05/23 05:43:48;;;;;;;8.63;5.03;;;;;;;;;;5095760;28;20458;-57
2021/05/23 05:46:15;;;;;;;5.00;4.50;;;;;;;;;;5095665;28;20531;-57
2021/05/23 05:48:42;;;;;;;6.70;4.50;;;;;;;;;;5095894;28;20449;-57
2021/05/23 05:51:09;;;;;;;8.53;4.73;;;;;;;;;;5095923;28;20785;-58
2021/05/23 05:53:36;;;;;;;6.40;4.87;;;;;;;;;;5095960;28;20466;-58
2021/05/23 05:56:03;;;;;;;9.53;5.00;;;;;;;;;;5095989;28;20450;-58
2021/05/23 05:58:30;;;;;;;5.53;4.50;;;;;;;;;;5095527;28;20952;-58
2021/05/23 06:00:57;;;;;;;6.50;5.43;;;;;;;;;;5096012;28;20507;-59
2021/05/23 06:03:23;;;;;;;7.33;5.83;;;;;;;;;;5095013;28;20927;-58
2021/05/23 06:05:50;;;;;;;5.50;4.90;;;;;;;;;;5094842;28;20454;-58
2021/05/23 06:08:18;;;;;;;7.17;4.93;;;;;;;;;;5095154;28;20434;-58
2021/05/23 06:10:45;;;;;;;6.57;5.27;;;;;;;;;;5095002;28;20450;-58
2021/05/23 06:13:12;;;;;;;8.70;5.23;;;;;;;;;;5094794;28;20450;-58
2021/05/23 06:15:38;;;;;;;7.47;5.07;;;;;;;;;;5095227;28;20471;-58
2021/05/23 06:18:05;;;;;;;10.27;5.60;;;;;;;;;;5095215;28;20503;-58
2021/05/23 06:20:32;;;;;;;5.87;5.30;;;;;;;;;;5095113;28;20473;-58
2021/05/23 06:22:59;;;;;;;5.70;5.07;;;;;;;;;;5094682;28;20938;-58
2021/05/23 06:25:26;;;;;;;9.57;5.53;;;;;;;;;;5094630;28;20470;-58
2021/05/23 06:27:53;;;;;;;7.53;5.27;;;;;;;;;;5094554;28;20489;-58
2021/05/23 06:30:20;;;;;;;10.50;6.20;;;;;;;;;;5093861;28;20454;-58
2021/05/23 06:32:47;;;;;;;8.10;5.53;;;;;;;;;;5094511;28;20802;-58
2021/05/23 06:35:17;;;;;;;5.70;5.07;;;;;;;;;;5094488;28;20830;-57
2021/05/23 06:37:44;;;;;;;6.37;5.77;;;;;;;;;;5095678;28;20438;-58
2021/05/23 06:40:12;;;;;;;7.37;5.30;;;;;;;;;;5094683;28;20450;-58
2021/05/23 06:42:39;;;;;;;7.63;5.80;;;;;;;;;;5094666;28;20449;-57
2021/05/23 06:45:07;;;;;;;8.33;6.03;;;;;;;;;;5094173;28;20587;-58
2021/05/23 06:47:34;;;;;;;14.20;5.90;;;;;;;;;;5094119;28;20474;-58
2021/05/23 06:50:01;;;;;;;6.13;4.73;;;;;;;;;;5094501;28;20438;-59
2021/05/23 06:52:27;;;;;;;9.23;5.60;;;;;;;;;;5094420;28;20450;-57
2021/05/23 06:54:54;;;;;;;7.03;5.50;;;;;;;;;;5094331;28;20482;-59
2021/05/23 06:57:21;;;;;;;7.63;5.00;;;;;;;;;;5094808;28;20434;-57
2021/05/23 06:59:49;;;;;;;6.57;5.00;;;;;;;;;;5093949;28;20446;-58
2021/05/23 07:02:15;;;;;;;6.70;4.37;;;;;;;;;;5094375;28;20518;-58
2021/05/23 07:04:42;;;;;;;5.13;4.60;;;;;;;;;;5094520;28;20523;-57
2021/05/23 07:07:09;;;;;;;6.03;4.60;;;;;;;;;;5097823;28;20489;-57
2021/05/23 07:09:36;;;;;;;8.57;4.80;;;;;;;;;;5094312;28;20442;-57
2021/05/23 07:12:03;;;;;;;6.83;4.53;;;;;;;;;;5093805;28;20546;-58
2021/05/23 07:14:30;;;;;;;5.50;3.83;;;;;;;;;;5094042;28;20465;-57
2021/05/23 07:16:57;;;;;;;6.10;5.40;;;;;;;;;;5094055;28;20446;-58
2021/05/23 07:19:24;;;;;;;9.00;4.90;;;;;;;;;;5094127;28;20443;-58
2021/05/23 07:21:51;;;;;;;5.47;4.93;;;;;;;;;;5093925;28;20450;-58
2021/05/23 07:24:18;;;;;;;6.70;4.60;;;;;;;;;;5093504;28;20957;-58
2021/05/23 07:26:45;;;;;;;6.80;4.43;;;;;;;;;;5094374;28;20473;-57
2021/05/23 07:29:12;;;;;;;6.20;4.90;;;;;;;;;;5094811;28;20442;-58
2021/05/23 07:31:38;;;;;;;7.60;4.70;;;;;;;;;;5093863;28;20812;-58
2021/05/23 07:34:06;;;;;;;6.93;4.10;;;;;;;;;;5095015;28;20466;-57
2021/05/23 07:36:33;;;;;;;13.63;4.33;;;;;;;;;;5093823;28;20443;-57
2021/05/23 07:38:59;;;;;;;6.30;4.37;;;;;;;;;;5094221;28;20453;-58
2021/05/23 07:41:26;;;;;;;6.40;4.40;;;;;;;;;;5093692;28;20544;-56
2021/05/23 07:43:53;;;;;;;7.83;4.83;;;;;;;;;;5093488;28;20470;-58
2021/05/23 07:46:20;;;;;;;6.83;4.50;;;;;;;;;;5093297;28;20466;-60
2021/05/23 07:48:46;;;;;;;4.63;3.83;;;;;;;;;;5093732;28;20442;-58
2021/05/23 07:51:14;;;;;;;5.03;4.40;;;;;;;;;;5093745;28;20446;-58
2021/05/23 07:53:41;;;;;;;5.23;3.67;;;;;;;;;;5093102;28;20531;-59
2021/05/23 07:56:08;;;;;;;4.73;3.77;;;;;;;;;;5093209;28;20446;-58
2021/05/23 07:58:34;;;;;;;9.90;4.47;;;;;;;;;;5093159;28;20442;-58
2021/05/23 08:01:01;;;;;;;4.20;3.80;;;;;;;;;;5093094;28;20806;-58
2021/05/23 08:03:28;;;;;;;3.87;3.37;;;;;;;;;;5093066;28;20472;-58
2021/05/23 08:05:55;;;;;;;4.40;3.50;;;;;;;;;;5092831;28;20455;-59
2021/05/23 08:08:23;;;;;;;3.90;3.30;;;;;;;;;;5092969;28;20466;-58
2021/05/23 08:10:50;;;;;;;4.80;3.90;;;;;;;;;;5093340;28;20448;-59
2021/05/23 08:13:17;;;;;;;4.50;3.60;;;;;;;;;;5092780;28;20478;-59
2021/05/23 08:15:44;;;;;;;4.43;3.93;;;;;;;;;;5093214;28;20447;-58
2021/05/23 08:18:11;;;;;;;5.07;3.80;;;;;;;;;;5093105;28;20453;-58
2021/05/23 08:20:37;;;;;;;4.70;3.70;;;;;;;;;;5092940;28;20450;-58
2021/05/23 08:23:04;;;;;;;6.20;3.70;;;;;;;;;;5092934;28;20435;-58
2021/05/23 08:25:32;;;;;;;4.00;3.60;;;;;;;;;;5092898;28;20516;-58
2021/05/23 08:27:59;;;;;;;5.40;3.80;;;;;;;;;;5092954;28;20817;-57
2021/05/23 08:30:25;;;;;;;4.87;4.10;;;;;;;;;;5093368;28;20450;-58
2021/05/23 08:32:52;;;;;;;5.13;3.10;;;;;;;;;;5092919;28;20457;-60
2021/05/23 08:35:19;;;;;;;3.67;3.37;;;;;;;;;;5093329;28;20466;-61
2021/05/23 08:37:46;;;;;;;9.37;3.50;;;;;;;;;;5093073;28;21011;-57
2021/05/23 08:40:13;;;;;;;3.37;2.93;;;;;;;;;;5092626;28;20446;-57
2021/05/23 08:42:40;;;;;;;4.73;3.57;;;;;;;;;;5092534;28;20951;-57
2021/05/23 08:45:08;;;;;;;4.27;2.60;;;;;;;;;;5092799;28;20461;-59
2021/05/23 08:47:39;;;;;;;5.47;3.30;;;;;;;;;;5092435;28;20470;-61
2021/05/23 08:50:07;;;;;;;4.00;3.33;;;;;;;;;;5092756;28;20455;-59
2021/05/23 08:52:34;;;;;;;3.87;3.47;;;;;;;;;;5092339;28;20812;-58
2021/05/23 08:55:00;;;;;;;4.73;3.30;;;;;;;;;;5096516;28;20545;-58
2021/05/23 08:57:27;;;;;;;3.50;3.20;;;;;;;;;;5098315;28;20442;-62
2021/05/23 08:59:55;;;;;;;3.75;3.20;;;;;;;;;;5096874;28;20436;-57
2021/05/23 09:02:22;;;;;;;4.40;3.13;;;;;;;;;;5096770;28;20620;-57
2021/05/23 09:04:49;;;;;;;4.90;3.63;;;;;;;;;;5096565;28;20466;-57
2021/05/23 09:07:16;;;;;;;5.20;3.80;;;;;;;;;;5095924;28;20490;-58
2021/05/23 09:09:43;;;;;;;4.30;3.60;;;;;;;;;;5096353;28;20477;-57
2021/05/23 09:12:11;;;;;;;4.20;3.33;;;;;;;;;;5096250;28;20941;-57
2021/05/23 09:14:38;;;;;;;4.80;3.80;;;;;;;;;;5096208;28;20469;-57
2021/05/23 09:17:06;;;;;;;5.90;3.63;;;;;;;;;;5096249;28;20449;-60
2021/05/23 09:19:42;;;;;;;6.47;3.30;;;;;;;;;;5095954;28;20469;-60
2021/05/23 09:22:10;;;;;;;3.90;3.60;;;;;;;;;;5095748;28;20453;-60
2021/05/23 09:24:47;;;;;;;7.17;3.80;;;;;;;;;;5096028;28;20825;-60
2021/05/23 09:27:13;;;;;;;3.40;3.10;;;;;;;;;;5096311;28;20462;-60
2021/05/23 09:29:40;;;;;;;3.87;3.47;;;;;;;;;;5096028;28;20795;-60
2021/05/23 09:32:15;;;;;;;3.40;3.10;;;;;;;;;;5095873;28;20454;-61
2021/05/23 09:34:42;;;;;;;3.53;3.23;;;;;;;;;;5095826;28;20465;-58
2021/05/23 09:37:15;;;;;;;3.60;3.20;;;;;;;;;;5096172;28;20435;-61
2021/05/23 09:39:42;;;;;;;3.33;2.90;;;;;;;;;;5095653;28;20454;-59
2021/05/23 09:42:11;;;;;;;4.37;3.30;;;;;;;;;;5095657;28;20439;-60
2021/05/23 09:44:38;;;;;;;2.73;2.37;;;;;;;;;;5095610;28;20554;-60
2021/05/23 09:47:09;;;;;;;3.53;3.23;;;;;;;;;;5095472;28;20488;-60
2021/05/23 09:49:41;;;;;;;5.40;3.77;;;;;;;;;;5095395;28;20435;-60
2021/05/23 09:52:08;;;;;;;3.97;3.10;;;;;;;;;;5096372;28;20796;-62
2021/05/23 09:54:43;;;;;;;3.57;3.20;;;;;;;;;;5095326;28;20462;-61
2021/05/23 09:57:12;;;;;;;3.70;3.10;;;;;;;;;;5095403;28;20537;-60
2021/05/23 09:59:39;;;;;;;2.93;2.73;;;;;;;;;;5095622;28;21036;-62
2021/05/23 10:02:06;;;;;;;3.67;3.37;;;;;;;;;;5095081;28;20442;-61
2021/05/23 10:04:33;;;;;;;3.40;3.10;;;;;;;;;;5094915;28;20470;-61
2021/05/23 10:07:01;;;;;;;2.70;2.30;;;;;;;;;;5094876;28;20486;-61
2021/05/23 10:09:28;;;;;;;2.77;2.57;;;;;;;;;;5095535;28;20449;-59
2021/05/23 10:11:55;;;;;;;2.63;2.43;;;;;;;;;;5095335;28;20500;-61
2021/05/23 10:14:22;;;;;;;3.60;2.87;;;;;;;;;;5095222;28;20458;-61
2021/05/23 10:16:51;;;;;;;2.77;2.57;;;;;;;;;;5094429;28;20446;-61
2021/05/23 10:19:19;;;;;;;2.60;2.40;;;;;;;;;;5094587;28;20458;-60
2021/05/23 10:21:47;;;;;;;3.40;2.60;;;;;;;;;;5095203;28;20442;-62
2021/05/23 10:24:17;;;;;;;2.33;2.13;;;;;;;;;;5095241;28;20522;-60
2021/05/23 10:26:44;;;;;;;2.57;2.37;;;;;;;;;;5094547;28;20827;-61
2021/05/23 10:29:12;;;;;;;2.87;2.00;;;;;;;;;;5094922;28;20815;-61
2021/05/23 10:31:38;;;;;;;3.30;2.67;;;;;;;;;;5095062;28;20450;-62
2021/05/23 10:34:05;;;;;;;2.53;2.33;;;;;;;;;;5094824;28;20474;-61
2021/05/23 10:36:33;;;;;;;2.00;1.90;;;;;;;;;;5097975;28;20438;-61
2021/05/23 10:39:01;;;;;;;2.37;2.17;;;;;;;;;;5098657;28;20946;-60
2021/05/23 10:41:29;;;;;;;1.63;1.53;;;;;;;;;;5094656;28;20450;-61
2021/05/23 10:43:59;;;;;;;2.17;1.97;;;;;;;;;;5094102;28;20492;-61
2021/05/23 10:46:26;;;;;;;1.93;1.83;;;;;;;;;;5094471;28;20447;-61
2021/05/23 10:48:54;;;;;;;2.27;2.03;;;;;;;;;;5094378;28;20453;-61
2021/05/23 10:51:21;;;;;;;2.03;1.53;;;;;;;;;;5094420;28;20446;-61
2021/05/23 10:53:48;;;;;;;1.77;1.60;;;;;;;;;;5094154;28;20462;-61
2021/05/23 10:56:19;;;;;;;3.80;1.93;;;;;;;;;;5094295;28;20439;-61
2021/05/23 10:58:52;;;;;;;1.60;1.50;;;;;;;;;;5094095;28;20503;-60
2021/05/23 11:01:19;;;;;;;1.90;1.80;;;;;;;;;;5094593;28;20513;-62
2021/05/23 11:03:46;;;;;;;2.10;1.90;;;;;;;;;;5095323;28;20466;-62
2021/05/23 11:06:21;;;;;;;2.10;1.90;;;;;;;;;;5094219;28;20500;-60
2021/05/23 11:08:49;;;;;;;1.70;1.60;;;;;;;;;;5094541;28;20486;-60
2021/05/23 11:11:20;;;;;;;2.07;1.93;;;;;;;;;;5095438;28;20446;-60
2021/05/23 11:13:47;;;;;;;1.90;1.80;;;;;;;;;;5094423;28;20462;-60
2021/05/23 11:16:16;;;;;;;2.50;2.23;;;;;;;;;;5094211;28;20442;-60
2021/05/23 11:18:43;;;;;;;2.50;2.30;;;;;;;;;;5094559;28;20438;-59
2021/05/23 11:21:12;;;;;;;2.57;2.13;;;;;;;;;;5094421;28;20449;-60
2021/05/23 11:23:46;;;;;;;1.97;1.87;;;;;;;;;;5093942;28;20473;-60
2021/05/23 11:26:15;;;;;;;1.97;1.77;;;;;;;;;;5094032;28;20863;-60
2021/05/23 11:28:47;;;;;;;2.13;1.77;;;;;;;;;;5094596;28;20895;-61
2021/05/23 11:31:20;;;;;;;2.73;1.90;;;;;;;;;;5093988;28;20426;-61
2021/05/23 11:33:49;;;;;;;2.00;1.80;;;;;;;;;;5093752;28;20466;-60
2021/05/23 11:36:18;;;;;;;1.70;1.57;;;;;;;;;;5093912;28;20503;-61
2021/05/23 11:38:45;;;;;;;3.40;1.80;;;;;;;;;;5093756;28;20434;-61
2021/05/23 11:41:12;;;;;;;2.50;1.90;;;;;;;;;;5093431;28;20446;-60
2021/05/23 11:43:38;;;;;;;2.00;1.90;;;;;;;;;;5093379;28;20462;-60
2021/05/23 11:46:06;;;;;;;3.13;2.07;;;;;;;;;;5092926;28;20954;-60
2021/05/23 11:48:35;;;;;;;1.97;1.77;;;;;;;;;;5093602;28;20478;-61
2021/05/23 11:51:03;;;;;;;1.70;1.60;;;;;;;;;;5093430;28;20442;-61
2021/05/23 11:53:40;;;;;;;1.60;1.50;;;;;;;;;;5093240;28;20450;-61
2021/05/23 11:56:06;;;;;;;2.37;2.17;;;;;;;;;;5092856;28;20426;-60
2021/05/23 11:58:33;;;;;;;1.83;1.50;;;;;;;;;;5093238;28;20439;-61
2021/05/23 12:01:10;;;;;;;2.90;1.80;;;;;;;;;;5092892;28;20584;-61
2021/05/23 12:03:38;;;;;;;2.73;1.90;;;;;;;;;;5092933;28;20526;-60
2021/05/23 12:06:05;;;;;;;2.63;2.13;;;;;;;;;;5091367;28;20466;-60
2021/05/23 12:08:31;;;;;;;3.43;2.67;;;;;;;;;;5090884;28;20469;-61
2021/05/23 12:11:02;;;;;;;4.00;3.10;;;;;;;;;;5091885;28;20443;-61
2021/05/23 12:13:38;;;;;;;3.40;3.10;;;;;;;;;;5091891;28;20446;-61
2021/05/23 12:16:05;;;;;;;3.30;3.00;;;;;;;;;;5092848;28;20442;-61
2021/05/23 12:18:37;;;;;;;3.47;3.17;;;;;;;;;;5093103;28;20438;-61
2021/05/23 12:21:05;;;;;;;3.30;3.03;;;;;;;;;;5092980;28;20443;-60
2021/05/23 12:23:32;;;;;;;3.90;3.33;;;;;;;;;;5092668;28;20466;-61
2021/05/23 12:25:59;;;;;;;4.80;3.67;;;;;;;;;;5092611;28;20442;-61
2021/05/23 12:28:34;;;;;;;4.27;3.60;;;;;;;;;;5094073;28;21000;-60
2021/05/23 12:31:04;;;;;;;3.67;3.37;;;;;;;;;;5097838;28;20495;-60
2021/05/23 12:33:30;;;;;;;5.97;4.17;;;;;;;;;;5096922;28;20447;-60
2021/05/23 12:36:05;;;;;;;4.30;4.00;;;;;;;;;;5097597;28;20941;-62
2021/05/23 12:38:31;;;;;;;4.83;4.40;;;;;;;;;;5098878;28;20432;-62
2021/05/23 12:40:59;;;;;;;4.70;3.63;;;;;;;;;;5099905;28;20449;-61
2021/05/23 12:43:27;;;;;;;4.20;3.47;;;;;;;;;;5100769;28;20446;-62
2021/05/23 12:45:58;;;;;;;3.90;3.60;;;;;;;;;;5101205;28;20442;-60
2021/05/23 12:48:26;;;;;;;4.60;3.40;;;;;;;;;;5104182;28;20926;-62
2021/05/23 12:50:53;;;;;;;3.60;3.30;;;;;;;;;;5108263;28;20446;-61
2021/05/23 12:53:25;;;;;;;3.77;3.47;;;;;;;;;;5104376;28;20851;-61
2021/05/23 12:55:52;;;;;;;3.63;3.13;;;;;;;;;;5098619;28;20441;-61
2021/05/23 12:58:19;;;;;;;4.03;3.63;;;;;;;;;;5096133;28;20453;-61
2021/05/23 13:00:47;;;;;;;3.63;3.33;;;;;;;;;;5096680;28;20442;-61
2021/05/23 13:03:15;;;;;;;4.67;3.80;;;;;;;;;;5096415;28;20434;-60
2021/05/23 13:05:52;;;;;;;5.47;3.90;;;;;;;;;;5096000;28;20929;-60
2021/05/23 13:08:19;;;;;;;6.00;4.07;;;;;;;;;;5096091;28;20457;-61
2021/05/23 13:10:46;;;;;;;6.73;4.00;;;;;;;;;;5096519;28;20438;-60
2021/05/23 13:13:13;;;;;;;5.30;3.77;;;;;;;;;;5096382;28;20454;-60
2021/05/23 13:15:40;;;;;;;5.77;4.30;;;;;;;;;;5096550;28;20929;-60
2021/05/23 13:18:07;;;;;;;7.67;4.37;;;;;;;;;;5095985;28;20449;-61
2021/05/23 13:20:35;;;;;;;6.90;4.20;;;;;;;;;;5096233;28;20439;-60
2021/05/23 13:23:02;;;;;;;7.53;4.07;;;;;;;;;;5095948;28;20438;-61
2021/05/23 13:25:29;;;;;;;4.87;3.10;;;;;;;;;;5095711;28;20467;-60
2021/05/23 13:27:57;;;;;;;4.47;3.10;;;;;;;;;;5095374;28;20535;-61
2021/05/23 13:30:25;;;;;;;4.80;3.60;;;;;;;;;;5095744;28;20446;-62
2021/05/23 13:32:53;;;;;;;5.73;2.43;;;;;;;;;;5095917;28;20507;-60
2021/05/23 13:35:20;;;;;;;4.63;3.07;;;;;;;;;;5092398;22;20492;-62
2021/05/23 13:37:47;;;;;;;3.80;2.20;;;;;;;;;;5035915;28;20472;-63
2021/05/23 13:40:14;;;;;;;5.20;2.33;;;;;;;;;;5035145;28;20433;-64
2021/05/23 13:42:41;;;;;;;5.93;2.70;;;;;;;;;;5035934;28;20492;-64
2021/05/23 13:45:09;;;;;;;2.63;2.00;;;;;;;;;;5036019;28;20465;-63
2021/05/23 13:47:36;;;;;;;4.37;2.10;;;;;;;;;;5035338;28;20489;-63
2021/05/23 13:50:03;;;;;;;2.27;1.90;;;;;;;;;;5035674;28;20491;-62
2021/05/23 13:52:30;;;;;;;4.70;3.20;;;;;;;;;;5036097;28;20452;-63
2021/05/23 13:54:57;;;;;;;4.53;2.30;;;;;;;;;;5036014;28;20572;-62
2021/05/23 13:57:24;;;;;;;4.23;1.90;;;;;;;;;;5036210;28;20538;-62
2021/05/23 13:59:50;;;;;;;3.93;1.70;;;;;;;;;;5036104;28;20503;-62
2021/05/23 14:02:18;;;;;;;1.73;1.37;;;;;;;;;;5035362;28;20453;-64
2021/05/23 14:04:46;;;;;;;1.93;1.20;;;;;;;;;;5035587;28;20511;-64
2021/05/23 14:07:13;;;;;;;4.97;2.00;;;;;;;;;;5035366;28;20480;-62
2021/05/23 14:09:40;;;;;;;3.10;1.30;;;;;;;;;;5035350;28;20453;-63
2021/05/23 14:12:07;;;;;;;3.50;1.13;;;;;;;;;;5035071;28;20495;-63
2021/05/23 14:14:33;;;;;;;2.70;1.73;;;;;;;;;;5034912;28;20465;-62
2021/05/23 14:17:01;;;;;;;2.57;1.23;;;;;;;;;;5034837;28;20448;-62
2021/05/23 14:19:29;;;;;;;3.10;1.13;;;;;;;;;;5034730;28;20449;-62
2021/05/23 14:21:55;;;;;;;2.40;1.37;;;;;;;;;;5034992;28;20453;-62
2021/05/23 14:24:22;;;;;;;4.93;1.57;;;;;;;;;;5035256;28;20456;-61
2021/05/23 14:26:51;;;;;;;2.70;1.13;;;;;;;;;;5034472;28;20445;-62
2021/05/23 14:29:21;;;;;;;2.57;1.40;;;;;;;;;;5036170;28;20787;-62
2021/05/23 14:31:48;;;;;;;1.87;1.40;;;;;;;;;;5034997;28;20548;-61
2021/05/23 14:34:15;;;;;;;3.87;1.43;;;;;;;;;;5034658;28;20471;-62
2021/05/23 14:36:43;;;;;;;3.20;1.33;;;;;;;;;;5034815;28;20449;-62
2021/05/23 14:39:09;;;;;;;3.03;1.03;;;;;;;;;;5034717;28;20456;-60
2021/05/23 14:41:37;;;;;;;3.20;1.40;;;;;;;;;;5034766;28;20445;-61
2021/05/23 14:44:04;;;;;;;3.40;1.23;;;;;;;;;;5034911;28;20448;-59